sensor_id;sensor_type;location;lat;lon;timestamp;temperature;humidity
66576;SHT31;53428;47.686;16.584;2024-03-06T00:03:05;5.39;99.57
66576;SHT31;53428;47.686;16.584;2024-03-06T00:08:04;5.22;99.79
66576;SHT31;53428;47.686;16.584;2024-03-06T00:13:04;5.12;99.99
66576;SHT31;53428;47.686;16.584;2024-03-06T00:18:03;4.99;99.99
66576;SHT31;53428;47.686;16.584;2024-03-06T00:23:04;4.78;99.99
66576;SHT31;53428;47.686;16.584;2024-03-06T00:28:03;4.61;99.99
66576;SHT31;53428;47.686;16.584;2024-03-06T00:33:02;4.77;99.99
66576;SHT31;53428;47.686;16.584;2024-03-06T00:38:02;4.61;99.99
66576;SHT31;53428;47.686;16.584;2024-03-06T00:43:01;4.61;99.99
66576;SHT31;53428;47.686;16.584;2024-03-06T00:48:01;4.58;99.99
66576;SHT31;53428;47.686;16.584;2024-03-06T00:53:00;4.43;99.99
66576;SHT31;53428;47.686;16.584;2024-03-06T00:57:59;4.49;99.99
66576;SHT31;53428;47.686;16.584;2024-03-06T01:02:58;4.56;99.99
66576;SHT31;53428;47.686;16.584;2024-03-06T01:07:58;4.54;99.99
66576;SHT31;53428;47.686;16.584;2024-03-06T01:12:58;4.43;99.99
66576;SHT31;53428;47.686;16.584;2024-03-06T01:17:57;4.60;99.99
66576;SHT31;53428;47.686;16.584;2024-03-06T01:22:56;4.75;99.99
66576;SHT31;53428;47.686;16.584;2024-03-06T01:27:56;4.63;99.99
66576;SHT31;53428;47.686;16.584;2024-03-06T01:32:55;4.68;99.99
66576;SHT31;53428;47.686;16.584;2024-03-06T01:37:54;4.65;99.99
66576;SHT31;53428;47.686;16.584;2024-03-06T01:42:54;4.71;99.99
66576;SHT31;53428;47.686;16.584;2024-03-06T01:47:53;4.70;99.99
66576;SHT31;53428;47.686;16.584;2024-03-06T01:52:53;4.68;99.99
66576;SHT31;53428;47.686;16.584;2024-03-06T01:57:52;4.44;99.99
66576;SHT31;53428;47.686;16.584;2024-03-06T02:02:52;4.42;99.99
66576;SHT31;53428;47.686;16.584;2024-03-06T02:07:53;4.44;99.99
66576;SHT31;53428;47.686;16.584;2024-03-06T02:12:54;4.53;99.99
66576;SHT31;53428;47.686;16.584;2024-03-06T02:17:53;4.49;99.99
66576;SHT31;53428;47.686;16.584;2024-03-06T02:22:53;4.37;99.99
66576;SHT31;53428;47.686;16.584;2024-03-06T02:27:57;4.30;99.99
66576;SHT31;53428;47.686;16.584;2024-03-06T02:32:58;4.54;99.99
66576;SHT31;53428;47.686;16.584;2024-03-06T02:37:59;4.56;99.99
66576;SHT31;53428;47.686;16.584;2024-03-06T02:42:59;4.47;99.99
66576;SHT31;53428;47.686;16.584;2024-03-06T02:47:58;4.49;99.99
66576;SHT31;53428;47.686;16.584;2024-03-06T02:52:58;4.61;99.99
66576;SHT31;53428;47.686;16.584;2024-03-06T02:58:01;4.56;99.99
66576;SHT31;53428;47.686;16.584;2024-03-06T03:03:01;4.42;99.99
66576;SHT31;53428;47.686;16.584;2024-03-06T03:08:00;4.39;99.99
66576;SHT31;53428;47.686;16.584;2024-03-06T03:13:00;4.47;99.99
66576;SHT31;53428;47.686;16.584;2024-03-06T03:17:59;4.60;99.99
66576;SHT31;53428;47.686;16.584;2024-03-06T03:23:00;4.49;99.99
66576;SHT31;53428;47.686;16.584;2024-03-06T03:28:00;4.49;99.99
66576;SHT31;53428;47.686;16.584;2024-03-06T03:33:00;4.39;99.99
66576;SHT31;53428;47.686;16.584;2024-03-06T03:38:02;4.47;99.99
66576;SHT31;53428;47.686;16.584;2024-03-06T03:43:02;4.42;99.99
66576;SHT31;53428;47.686;16.584;2024-03-06T03:48:05;4.42;99.99
66576;SHT31;53428;47.686;16.584;2024-03-06T03:53:05;4.64;99.99
66576;SHT31;53428;47.686;16.584;2024-03-06T03:58:04;4.64;99.99
66576;SHT31;53428;47.686;16.584;2024-03-06T04:03:06;4.58;99.99
66576;SHT31;53428;47.686;16.584;2024-03-06T04:08:06;4.50;99.99
66576;SHT31;53428;47.686;16.584;2024-03-06T04:13:05;4.58;99.99
66576;SHT31;53428;47.686;16.584;2024-03-06T04:18:06;4.47;99.99
66576;SHT31;53428;47.686;16.584;2024-03-06T04:23:06;4.40;99.99
66576;SHT31;53428;47.686;16.584;2024-03-06T04:28:05;4.32;99.99
66576;SHT31;53428;47.686;16.584;2024-03-06T04:33:06;4.29;99.99
66576;SHT31;53428;47.686;16.584;2024-03-06T04:38:06;4.26;99.99
66576;SHT31;53428;47.686;16.584;2024-03-06T04:43:05;4.23;99.99
66576;SHT31;53428;47.686;16.584;2024-03-06T04:48:07;4.29;99.99
66576;SHT31;53428;47.686;16.584;2024-03-06T04:53:07;4.23;99.99
66576;SHT31;53428;47.686;16.584;2024-03-06T04:58:06;4.09;99.99
66576;SHT31;53428;47.686;16.584;2024-03-06T05:03:05;4.20;99.99
66576;SHT31;53428;47.686;16.584;2024-03-06T05:08:05;4.33;99.99
66576;SHT31;53428;47.686;16.584;2024-03-06T05:13:06;4.32;99.99
66576;SHT31;53428;47.686;16.584;2024-03-06T05:18:05;4.52;99.99
66576;SHT31;53428;47.686;16.584;2024-03-06T05:23:05;4.63;99.99
66576;SHT31;53428;47.686;16.584;2024-03-06T05:28:05;4.70;99.99
66576;SHT31;53428;47.686;16.584;2024-03-06T05:33:04;4.73;99.99
66576;SHT31;53428;47.686;16.584;2024-03-06T05:38:04;4.71;99.99
66576;SHT31;53428;47.686;16.584;2024-03-06T05:43:05;4.75;99.99
66576;SHT31;53428;47.686;16.584;2024-03-06T05:48:04;4.84;99.99
66576;SHT31;53428;47.686;16.584;2024-03-06T05:53:04;4.91;99.99
66576;SHT31;53428;47.686;16.584;2024-03-06T05:58:03;4.98;99.99
66576;SHT31;53428;47.686;16.584;2024-03-06T06:03:04;4.92;99.99
66576;SHT31;53428;47.686;16.584;2024-03-06T06:08:04;4.89;99.99
66576;SHT31;53428;47.686;16.584;2024-03-06T06:13:04;4.99;99.99
66576;SHT31;53428;47.686;16.584;2024-03-06T06:18:04;5.02;99.98
66576;SHT31;53428;47.686;16.584;2024-03-06T06:23:03;5.16;99.39
66576;SHT31;53428;47.686;16.584;2024-03-06T06:28:03;5.31;98.71
66576;SHT31;53428;47.686;16.584;2024-03-06T06:33:02;5.42;98.19
66576;SHT31;53428;47.686;16.584;2024-03-06T06:38:02;5.50;97.66
66576;SHT31;53428;47.686;16.584;2024-03-06T06:43:01;5.59;97.16
66576;SHT31;53428;47.686;16.584;2024-03-06T06:48:01;5.67;96.80
66576;SHT31;53428;47.686;16.584;2024-03-06T06:53:00;5.81;96.53
66576;SHT31;53428;47.686;16.584;2024-03-06T06:57:59;5.88;95.51
66576;SHT31;53428;47.686;16.584;2024-03-06T07:02:59;6.07;94.99
66576;SHT31;53428;47.686;16.584;2024-03-06T07:07:59;6.12;94.42
66576;SHT31;53428;47.686;16.584;2024-03-06T07:12:58;6.21;94.12
66576;SHT31;53428;47.686;16.584;2024-03-06T07:17:57;6.33;93.33
66576;SHT31;53428;47.686;16.584;2024-03-06T07:22:57;6.39;93.33
66576;SHT31;53428;47.686;16.584;2024-03-06T07:27:57;6.54;92.41
66576;SHT31;53428;47.686;16.584;2024-03-06T07:32:56;6.63;91.91
66576;SHT31;53428;47.686;16.584;2024-03-06T07:37:56;6.86;91.49
66576;SHT31;53428;47.686;16.584;2024-03-06T07:42:55;6.81;91.01
66576;SHT31;53428;47.686;16.584;2024-03-06T07:47:55;6.88;90.30
66576;SHT31;53428;47.686;16.584;2024-03-06T07:52:54;7.03;90.23
66576;SHT31;53428;47.686;16.584;2024-03-06T07:57:54;7.15;89.39
66576;SHT31;53428;47.686;16.584;2024-03-06T08:02:53;7.32;88.90
66576;SHT31;53428;47.686;16.584;2024-03-06T08:07:52;7.39;88.52
66576;SHT31;53428;47.686;16.584;2024-03-06T08:12:52;7.55;88.20
66576;SHT31;53428;47.686;16.584;2024-03-06T08:17:51;7.65;87.13
66576;SHT31;53428;47.686;16.584;2024-03-06T08:22:51;7.97;86.32
66576;SHT31;53428;47.686;16.584;2024-03-06T08:27:50;8.00;85.97
66576;SHT31;53428;47.686;16.584;2024-03-06T08:32:50;8.07;86.01
66576;SHT31;53428;47.686;16.584;2024-03-06T08:37:50;8.24;85.58
66576;SHT31;53428;47.686;16.584;2024-03-06T08:42:50;8.41;84.45
66576;SHT31;53428;47.686;16.584;2024-03-06T08:47:49;8.56;83.89
66576;SHT31;53428;47.686;16.584;2024-03-06T08:52:48;8.68;83.27
66576;SHT31;53428;47.686;16.584;2024-03-06T08:57:48;8.66;82.82
66576;SHT31;53428;47.686;16.584;2024-03-06T09:02:49;8.81;82.51
66576;SHT31;53428;47.686;16.584;2024-03-06T09:07:48;9.10;81.83
66576;SHT31;53428;47.686;16.584;2024-03-06T09:12:48;9.10;80.87
66576;SHT31;53428;47.686;16.584;2024-03-06T09:17:48;9.31;80.83
66576;SHT31;53428;47.686;16.584;2024-03-06T09:22:47;9.54;80.32
66576;SHT31;53428;47.686;16.584;2024-03-06T09:27:47;9.34;79.09
66576;SHT31;53428;47.686;16.584;2024-03-06T09:32:47;9.89;78.31
66576;SHT31;53428;47.686;16.584;2024-03-06T09:37:46;10.13;77.76
66576;SHT31;53428;47.686;16.584;2024-03-06T09:42:46;9.83;77.98
66576;SHT31;53428;47.686;16.584;2024-03-06T09:47:45;10.36;76.40
66576;SHT31;53428;47.686;16.584;2024-03-06T09:52:47;10.12;76.31
66576;SHT31;53428;47.686;16.584;2024-03-06T09:57:47;10.41;75.86
66576;SHT31;53428;47.686;16.584;2024-03-06T10:02:56;10.69;74.74
66576;SHT31;53428;47.686;16.584;2024-03-06T10:07:56;11.15;73.46
66576;SHT31;53428;47.686;16.584;2024-03-06T10:12:55;11.02;73.77
66576;SHT31;53428;47.686;16.584;2024-03-06T10:18:15;10.65;74.05
66576;SHT31;53428;47.686;16.584;2024-03-06T10:23:17;11.03;73.45
66576;SHT31;53428;47.686;16.584;2024-03-06T10:28:18;11.36;72.96
66576;SHT31;53428;47.686;16.584;2024-03-06T10:33:18;11.88;71.47
66576;SHT31;53428;47.686;16.584;2024-03-06T10:38:20;11.63;71.78
66576;SHT31;53428;47.686;16.584;2024-03-06T10:43:21;11.74;70.55
66576;SHT31;53428;47.686;16.584;2024-03-06T10:48:20;11.51;70.66
66576;SHT31;53428;47.686;16.584;2024-03-06T10:53:19;11.26;71.51
66576;SHT31;53428;47.686;16.584;2024-03-06T10:58:20;11.98;69.97
66576;SHT31;53428;47.686;16.584;2024-03-06T11:03:20;12.26;69.22
66576;SHT31;53428;47.686;16.584;2024-03-06T11:08:20;12.18;69.12
66576;SHT31;53428;47.686;16.584;2024-03-06T11:13:21;12.32;69.43
66576;SHT31;53428;47.686;16.584;2024-03-06T11:23:31;12.60;67.78
66576;SHT31;53428;47.686;16.584;2024-03-06T11:28:32;12.54;67.47
66576;SHT31;53428;47.686;16.584;2024-03-06T11:33:43;12.44;66.87
66576;SHT31;53428;47.686;16.584;2024-03-06T11:38:46;13.74;64.90
66576;SHT31;53428;47.686;16.584;2024-03-06T11:43:48;14.17;64.06
66576;SHT31;53428;47.686;16.584;2024-03-06T11:48:54;14.87;62.93
66576;SHT31;53428;47.686;16.584;2024-03-06T11:53:54;15.57;62.04
66576;SHT31;53428;47.686;16.584;2024-03-06T11:58:53;14.44;61.51
66576;SHT31;53428;47.686;16.584;2024-03-06T12:03:53;16.02;60.26
66576;SHT31;53428;47.686;16.584;2024-03-06T12:08:53;15.41;61.17
66576;SHT31;53428;47.686;16.584;2024-03-06T12:13:53;15.72;61.20
66576;SHT31;53428;47.686;16.584;2024-03-06T12:18:56;15.13;60.71
66576;SHT31;53428;47.686;16.584;2024-03-06T12:24:08;16.03;59.81
66576;SHT31;53428;47.686;16.584;2024-03-06T12:29:11;14.94;60.24
66576;SHT31;53428;47.686;16.584;2024-03-06T12:34:14;15.83;59.38
66576;SHT31;53428;47.686;16.584;2024-03-06T12:39:16;17.20;57.09
66576;SHT31;53428;47.686;16.584;2024-03-06T12:44:18;16.03;59.67
66576;SHT31;53428;47.686;16.584;2024-03-06T12:49:18;14.90;60.68
66576;SHT31;53428;47.686;16.584;2024-03-06T12:54:19;15.06;59.64
66576;SHT31;53428;47.686;16.584;2024-03-06T12:59:18;15.32;59.07
66576;SHT31;53428;47.686;16.584;2024-03-06T13:04:18;14.04;60.94
66576;SHT31;53428;47.686;16.584;2024-03-06T13:09:17;15.32;59.29
66576;SHT31;53428;47.686;16.584;2024-03-06T13:14:16;16.02;58.37
66576;SHT31;53428;47.686;16.584;2024-03-06T13:19:15;15.35;59.68
66576;SHT31;53428;47.686;16.584;2024-03-06T13:24:15;15.63;59.39
66576;SHT31;53428;47.686;16.584;2024-03-06T13:29:14;14.84;59.95
66576;SHT31;53428;47.686;16.584;2024-03-06T13:34:13;14.21;60.16
66576;SHT31;53428;47.686;16.584;2024-03-06T13:39:13;14.90;59.07
66576;SHT31;53428;47.686;16.584;2024-03-06T13:44:12;15.85;59.01
66576;SHT31;53428;47.686;16.584;2024-03-06T13:49:35;14.62;60.41
66576;SHT31;53428;47.686;16.584;2024-03-06T13:54:34;15.72;58.10
66576;SHT31;53428;47.686;16.584;2024-03-06T13:59:33;14.71;60.02
66576;SHT31;53428;47.686;16.584;2024-03-06T14:04:33;14.69;61.24
66576;SHT31;53428;47.686;16.584;2024-03-06T14:09:33;13.93;61.53
66576;SHT31;53428;47.686;16.584;2024-03-06T14:14:32;14.29;62.24
66576;SHT31;53428;47.686;16.584;2024-03-06T14:19:31;14.18;62.13
66576;SHT31;53428;47.686;16.584;2024-03-06T14:24:31;13.60;62.10
66576;SHT31;53428;47.686;16.584;2024-03-06T14:29:30;14.07;61.39
66576;SHT31;53428;47.686;16.584;2024-03-06T14:34:29;13.16;64.37
66576;SHT31;53428;47.686;16.584;2024-03-06T14:39:28;13.02;64.74
66576;SHT31;53428;47.686;16.584;2024-03-06T14:44:28;13.23;64.26
66576;SHT31;53428;47.686;16.584;2024-03-06T14:49:28;12.98;64.86
66576;SHT31;53428;47.686;16.584;2024-03-06T14:54:28;11.91;67.20
66576;SHT31;53428;47.686;16.584;2024-03-06T14:59:27;12.02;67.64
66576;SHT31;53428;47.686;16.584;2024-03-06T15:04:26;11.40;69.06
66576;SHT31;53428;47.686;16.584;2024-03-06T15:09:26;10.40;71.18
66576;SHT31;53428;47.686;16.584;2024-03-06T15:14:25;10.85;70.93
66576;SHT31;53428;47.686;16.584;2024-03-06T15:19:24;10.61;71.56
66576;SHT31;53428;47.686;16.584;2024-03-06T15:24:24;10.65;71.38
66576;SHT31;53428;47.686;16.584;2024-03-06T15:29:23;9.95;73.11
66576;SHT31;53428;47.686;16.584;2024-03-06T15:34:22;10.17;72.66
66576;SHT31;53428;47.686;16.584;2024-03-06T15:39:22;9.79;73.24
66576;SHT31;53428;47.686;16.584;2024-03-06T15:44:21;9.58;73.76
66576;SHT31;53428;47.686;16.584;2024-03-06T15:49:22;9.37;74.18
66576;SHT31;53428;47.686;16.584;2024-03-06T15:54:24;9.27;74.40
66576;SHT31;53428;47.686;16.584;2024-03-06T15:59:24;9.03;74.80
66576;SHT31;53428;47.686;16.584;2024-03-06T16:04:23;8.97;74.63
66576;SHT31;53428;47.686;16.584;2024-03-06T16:09:22;9.00;74.34
66576;SHT31;53428;47.686;16.584;2024-03-06T16:14:22;8.99;74.19
66576;SHT31;53428;47.686;16.584;2024-03-06T16:19:21;9.11;73.97
66576;SHT31;53428;47.686;16.584;2024-03-06T16:24:22;9.06;73.95
66576;SHT31;53428;47.686;16.584;2024-03-06T16:29:21;9.03;74.13
66576;SHT31;53428;47.686;16.584;2024-03-06T16:34:38;9.08;73.81
66576;SHT31;53428;47.686;16.584;2024-03-06T16:39:45;8.99;73.75
66576;SHT31;53428;47.686;16.584;2024-03-06T16:44:47;8.99;74.08
66576;SHT31;53428;47.686;16.584;2024-03-06T16:49:46;9.06;73.77
66576;SHT31;53428;47.686;16.584;2024-03-06T16:54:46;9.13;73.81
66576;SHT31;53428;47.686;16.584;2024-03-06T16:59:45;9.14;73.66
66576;SHT31;53428;47.686;16.584;2024-03-06T17:04:44;9.04;73.81
66576;SHT31;53428;47.686;16.584;2024-03-06T17:09:43;9.06;73.73
66576;SHT31;53428;47.686;16.584;2024-03-06T17:14:43;8.93;74.07
66576;SHT31;53428;47.686;16.584;2024-03-06T17:19:42;8.83;74.01
66576;SHT31;53428;47.686;16.584;2024-03-06T17:24:44;8.80;74.22
66576;SHT31;53428;47.686;16.584;2024-03-06T17:29:43;8.70;74.39
66576;SHT31;53428;47.686;16.584;2024-03-06T17:34:42;8.63;74.72
66576;SHT31;53428;47.686;16.584;2024-03-06T17:39:41;8.75;74.54
66576;SHT31;53428;47.686;16.584;2024-03-06T17:44:41;8.45;75.01
66576;SHT31;53428;47.686;16.584;2024-03-06T17:49:41;8.48;74.61
66576;SHT31;53428;47.686;16.584;2024-03-06T17:54:40;8.48;74.59
66576;SHT31;53428;47.686;16.584;2024-03-06T17:59:39;8.37;75.01
66576;SHT31;53428;47.686;16.584;2024-03-06T18:04:39;8.24;75.28
66576;SHT31;53428;47.686;16.584;2024-03-06T18:09:38;8.15;75.76
66576;SHT31;53428;47.686;16.584;2024-03-06T18:14:37;8.04;76.10
66576;SHT31;53428;47.686;16.584;2024-03-06T18:19:36;7.89;76.61
66576;SHT31;53428;47.686;16.584;2024-03-06T18:24:36;7.70;77.16
66576;SHT31;53428;47.686;16.584;2024-03-06T18:29:36;7.61;77.41
66576;SHT31;53428;47.686;16.584;2024-03-06T18:34:35;7.55;77.19
66576;SHT31;53428;47.686;16.584;2024-03-06T18:39:35;7.42;77.54
66576;SHT31;53428;47.686;16.584;2024-03-06T18:44:34;7.32;78.11
66576;SHT31;53428;47.686;16.584;2024-03-06T18:49:34;7.25;78.31
66576;SHT31;53428;47.686;16.584;2024-03-06T18:54:33;7.22;78.50
66576;SHT31;53428;47.686;16.584;2024-03-06T18:59:33;7.08;78.90
66576;SHT31;53428;47.686;16.584;2024-03-06T19:04:32;7.03;79.14
66576;SHT31;53428;47.686;16.584;2024-03-06T19:09:33;6.79;79.90
66576;SHT31;53428;47.686;16.584;2024-03-06T19:14:32;6.65;80.30
66576;SHT31;53428;47.686;16.584;2024-03-06T19:19:32;6.59;80.30
66576;SHT31;53428;47.686;16.584;2024-03-06T19:24:31;6.54;80.22
66576;SHT31;53428;47.686;16.584;2024-03-06T19:29:31;6.49;80.18
66576;SHT31;53428;47.686;16.584;2024-03-06T19:34:31;6.63;79.59
66576;SHT31;53428;47.686;16.584;2024-03-06T19:39:32;6.84;78.36
66576;SHT31;53428;47.686;16.584;2024-03-06T19:44:32;6.76;77.16
66576;SHT31;53428;47.686;16.584;2024-03-06T19:49:33;6.69;76.98
66576;SHT31;53428;47.686;16.584;2024-03-06T19:54:36;6.48;77.94
66576;SHT31;53428;47.686;16.584;2024-03-06T19:59:35;6.24;79.27
66576;SHT31;53428;47.686;16.584;2024-03-06T20:04:35;6.08;80.22
66576;SHT31;53428;47.686;16.584;2024-03-06T20:09:34;6.00;80.49
66576;SHT31;53428;47.686;16.584;2024-03-06T20:14:34;5.94;81.36
66576;SHT31;53428;47.686;16.584;2024-03-06T20:19:34;6.01;80.99
66576;SHT31;53428;47.686;16.584;2024-03-06T20:24:34;5.93;81.03
66576;SHT31;53428;47.686;16.584;2024-03-06T20:29:33;5.77;81.80
66576;SHT31;53428;47.686;16.584;2024-03-06T20:34:33;5.73;82.29
66576;SHT31;53428;47.686;16.584;2024-03-06T20:39:32;5.78;82.68
66576;SHT31;53428;47.686;16.584;2024-03-06T20:44:34;5.75;82.95
66576;SHT31;53428;47.686;16.584;2024-03-06T20:49:34;5.69;83.14
66576;SHT31;53428;47.686;16.584;2024-03-06T20:54:33;5.71;83.08
66576;SHT31;53428;47.686;16.584;2024-03-06T20:59:33;5.70;83.36
66576;SHT31;53428;47.686;16.584;2024-03-06T21:04:32;5.70;83.45
66576;SHT31;53428;47.686;16.584;2024-03-06T21:09:31;5.54;83.90
66576;SHT31;53428;47.686;16.584;2024-03-06T21:14:31;5.47;84.21
66576;SHT31;53428;47.686;16.584;2024-03-06T21:19:35;5.32;84.51
66576;SHT31;53428;47.686;16.584;2024-03-06T21:24:35;5.33;84.30
66576;SHT31;53428;47.686;16.584;2024-03-06T21:29:36;5.26;84.55
66576;SHT31;53428;47.686;16.584;2024-03-06T21:34:36;5.22;85.04
66576;SHT31;53428;47.686;16.584;2024-03-06T21:39:36;5.21;85.37
66576;SHT31;53428;47.686;16.584;2024-03-06T21:44:35;5.28;85.51
66576;SHT31;53428;47.686;16.584;2024-03-06T21:49:34;5.38;85.52
66576;SHT31;53428;47.686;16.584;2024-03-06T21:54:34;5.73;84.87
66576;SHT31;53428;47.686;16.584;2024-03-06T21:59:33;5.86;84.91
66576;SHT31;53428;47.686;16.584;2024-03-06T22:04:33;5.98;84.67
66576;SHT31;53428;47.686;16.584;2024-03-06T22:09:33;6.00;84.73
66576;SHT31;53428;47.686;16.584;2024-03-06T22:14:33;6.12;84.48
66576;SHT31;53428;47.686;16.584;2024-03-06T22:19:32;6.09;84.62
66576;SHT31;53428;47.686;16.584;2024-03-06T22:24:32;6.26;84.31
66576;SHT31;53428;47.686;16.584;2024-03-06T22:29:31;6.30;84.32
66576;SHT31;53428;47.686;16.584;2024-03-06T22:34:30;6.32;84.35
66576;SHT31;53428;47.686;16.584;2024-03-06T22:39:30;6.39;84.32
66576;SHT31;53428;47.686;16.584;2024-03-06T22:44:29;6.45;84.35
66576;SHT31;53428;47.686;16.584;2024-03-06T22:49:28;6.52;84.34
66576;SHT31;53428;47.686;16.584;2024-03-06T22:54:28;6.50;84.51
66576;SHT31;53428;47.686;16.584;2024-03-06T22:59:27;6.48;84.55
66576;SHT31;53428;47.686;16.584;2024-03-06T23:04:26;6.52;84.54
66576;SHT31;53428;47.686;16.584;2024-03-06T23:09:25;6.48;84.77
66576;SHT31;53428;47.686;16.584;2024-03-06T23:14:25;6.42;84.84
66576;SHT31;53428;47.686;16.584;2024-03-06T23:19:24;6.36;85.23
66576;SHT31;53428;47.686;16.584;2024-03-06T23:24:23;6.33;85.10
66576;SHT31;53428;47.686;16.584;2024-03-06T23:29:23;6.39;85.04
66576;SHT31;53428;47.686;16.584;2024-03-06T23:34:22;6.39;85.11
66576;SHT31;53428;47.686;16.584;2024-03-06T23:39:21;6.38;85.08
66576;SHT31;53428;47.686;16.584;2024-03-06T23:44:21;6.33;85.06
66576;SHT31;53428;47.686;16.584;2024-03-06T23:49:21;6.36;84.89
66576;SHT31;53428;47.686;16.584;2024-03-06T23:54:20;6.39;85.01
66576;SHT31;53428;47.686;16.584;2024-03-06T23:59:20;6.30;85.38
